sensor_id;sensor_type;location;lat;lon;timestamp;temperature;humidity
18712;DHT22;9485;49.386;8.674;2022-09-27T00:00:40;13.50;94.80
18712;DHT22;9485;49.386;8.674;2022-09-27T00:06:06;13.50;94.80
18712;DHT22;9485;49.386;8.674;2022-09-27T00:11:31;13.50;94.70
18712;DHT22;9485;49.386;8.674;2022-09-27T00:16:54;13.40;94.80
18712;DHT22;9485;49.386;8.674;2022-09-27T00:22:16;13.40;94.90
18712;DHT22;9485;49.386;8.674;2022-09-27T00:27:37;13.40;95.00
18712;DHT22;9485;49.386;8.674;2022-09-27T00:32:57;13.40;95.10
18712;DHT22;9485;49.386;8.674;2022-09-27T00:38:21;13.50;95.20
18712;DHT22;9485;49.386;8.674;2022-09-27T00:43:44;13.40;95.10
18712;DHT22;9485;49.386;8.674;2022-09-27T00:49:12;13.50;95.10
18712;DHT22;9485;49.386;8.674;2022-09-27T00:54:41;13.50;95.20
18712;DHT22;9485;49.386;8.674;2022-09-27T01:00:06;13.50;95.20
18712;DHT22;9485;49.386;8.674;2022-09-27T01:05:29;13.50;95.30
18712;DHT22;9485;49.386;8.674;2022-09-27T01:11:03;13.60;95.40
18712;DHT22;9485;49.386;8.674;2022-09-27T01:16:39;13.60;95.40
18712;DHT22;9485;49.386;8.674;2022-09-27T01:22:08;13.70;95.40
18712;DHT22;9485;49.386;8.674;2022-09-27T01:28:04;13.70;95.30
18712;DHT22;9485;49.386;8.674;2022-09-27T01:33:39;13.70;95.40
18712;DHT22;9485;49.386;8.674;2022-09-27T01:39:16;13.70;95.30
18712;DHT22;9485;49.386;8.674;2022-09-27T01:45:10;13.70;95.30
18712;DHT22;9485;49.386;8.674;2022-09-27T01:50:58;13.80;95.50
18712;DHT22;9485;49.386;8.674;2022-09-27T01:56:26;13.80;95.50
18712;DHT22;9485;49.386;8.674;2022-09-27T02:02:00;13.80;95.40
18712;DHT22;9485;49.386;8.674;2022-09-27T02:07:49;13.80;95.50
18712;DHT22;9485;49.386;8.674;2022-09-27T02:13:18;13.80;95.50
18712;DHT22;9485;49.386;8.674;2022-09-27T02:18:52;13.80;95.40
18712;DHT22;9485;49.386;8.674;2022-09-27T02:24:26;13.80;95.50
18712;DHT22;9485;49.386;8.674;2022-09-27T02:29:59;13.80;95.30
18712;DHT22;9485;49.386;8.674;2022-09-27T02:35:26;13.80;95.40
18712;DHT22;9485;49.386;8.674;2022-09-27T02:40:50;13.80;95.40
18712;DHT22;9485;49.386;8.674;2022-09-27T02:46:23;13.80;95.40
18712;DHT22;9485;49.386;8.674;2022-09-27T02:52:05;13.70;95.40
18712;DHT22;9485;49.386;8.674;2022-09-27T02:57:50;13.80;95.50
18712;DHT22;9485;49.386;8.674;2022-09-27T03:03:38;13.70;95.40
18712;DHT22;9485;49.386;8.674;2022-09-27T03:09:04;13.70;95.40
18712;DHT22;9485;49.386;8.674;2022-09-27T03:14:34;13.70;95.40
18712;DHT22;9485;49.386;8.674;2022-09-27T03:20:11;13.70;95.50
18712;DHT22;9485;49.386;8.674;2022-09-27T03:25:54;13.70;95.50
18712;DHT22;9485;49.386;8.674;2022-09-27T03:31:18;13.70;95.50
18712;DHT22;9485;49.386;8.674;2022-09-27T03:37:04;13.60;95.50
18712;DHT22;9485;49.386;8.674;2022-09-27T03:42:26;13.60;95.50
18712;DHT22;9485;49.386;8.674;2022-09-27T03:47:48;13.60;95.50
18712;DHT22;9485;49.386;8.674;2022-09-27T03:53:09;13.60;95.50
18712;DHT22;9485;49.386;8.674;2022-09-27T03:58:29;13.60;95.60
18712;DHT22;9485;49.386;8.674;2022-09-27T04:03:52;13.60;95.70
18712;DHT22;9485;49.386;8.674;2022-09-27T04:09:22;13.60;95.60
18712;DHT22;9485;49.386;8.674;2022-09-27T04:14:53;13.60;95.60
18712;DHT22;9485;49.386;8.674;2022-09-27T04:20:35;13.60;95.60
18712;DHT22;9485;49.386;8.674;2022-09-27T04:25:59;13.70;95.70
18712;DHT22;9485;49.386;8.674;2022-09-27T04:31:45;13.60;95.60
18712;DHT22;9485;49.386;8.674;2022-09-27T04:37:30;13.70;95.70
18712;DHT22;9485;49.386;8.674;2022-09-27T04:42:55;13.70;95.60
18712;DHT22;9485;49.386;8.674;2022-09-27T04:48:16;13.70;95.60
18712;DHT22;9485;49.386;8.674;2022-09-27T04:53:38;13.70;95.70
18712;DHT22;9485;49.386;8.674;2022-09-27T04:58:59;13.70;95.70
18712;DHT22;9485;49.386;8.674;2022-09-27T05:04:22;13.70;95.60
18712;DHT22;9485;49.386;8.674;2022-09-27T05:09:46;13.70;95.60
18712;DHT22;9485;49.386;8.674;2022-09-27T05:15:08;13.70;95.60
18712;DHT22;9485;49.386;8.674;2022-09-27T05:20:49;13.70;95.50
18712;DHT22;9485;49.386;8.674;2022-09-27T05:26:19;13.70;95.50
18712;DHT22;9485;49.386;8.674;2022-09-27T05:31:39;13.60;95.40
18712;DHT22;9485;49.386;8.674;2022-09-27T05:37:00;13.60;95.30
18712;DHT22;9485;49.386;8.674;2022-09-27T05:42:26;13.60;95.20
18712;DHT22;9485;49.386;8.674;2022-09-27T05:47:54;13.60;95.10
18712;DHT22;9485;49.386;8.674;2022-09-27T05:53:17;13.50;95.10
18712;DHT22;9485;49.386;8.674;2022-09-27T05:58:43;13.40;95.20
18712;DHT22;9485;49.386;8.674;2022-09-27T06:04:08;13.40;95.10
18712;DHT22;9485;49.386;8.674;2022-09-27T06:10:07;13.40;95.20
18712;DHT22;9485;49.386;8.674;2022-09-27T06:15:30;13.30;95.30
18712;DHT22;9485;49.386;8.674;2022-09-27T06:20:52;13.30;95.50
18712;DHT22;9485;49.386;8.674;2022-09-27T06:26:13;13.30;95.50
18712;DHT22;9485;49.386;8.674;2022-09-27T06:32:00;13.40;95.60
18712;DHT22;9485;49.386;8.674;2022-09-27T06:37:54;13.40;95.60
18712;DHT22;9485;49.386;8.674;2022-09-27T06:43:17;13.50;95.60
18712;DHT22;9485;49.386;8.674;2022-09-27T06:48:59;13.50;95.50
18712;DHT22;9485;49.386;8.674;2022-09-27T06:54:20;13.50;95.40
18712;DHT22;9485;49.386;8.674;2022-09-27T06:59:41;13.50;95.50
18712;DHT22;9485;49.386;8.674;2022-09-27T07:05:40;13.50;95.50
18712;DHT22;9485;49.386;8.674;2022-09-27T07:11:18;13.50;95.50
18712;DHT22;9485;49.386;8.674;2022-09-27T07:16:40;13.50;95.60
18712;DHT22;9485;49.386;8.674;2022-09-27T07:22:03;13.50;95.60
18712;DHT22;9485;49.386;8.674;2022-09-27T07:27:24;13.60;95.50
18712;DHT22;9485;49.386;8.674;2022-09-27T07:32:46;13.60;95.40
18712;DHT22;9485;49.386;8.674;2022-09-27T07:38:09;13.60;95.40
18712;DHT22;9485;49.386;8.674;2022-09-27T07:43:33;13.60;95.30
18712;DHT22;9485;49.386;8.674;2022-09-27T07:48:53;13.60;95.30
18712;DHT22;9485;49.386;8.674;2022-09-27T07:54:34;13.60;95.70
18712;DHT22;9485;49.386;8.674;2022-09-27T07:59:58;13.70;95.20
18712;DHT22;9485;49.386;8.674;2022-09-27T08:05:19;13.70;95.40
18712;DHT22;9485;49.386;8.674;2022-09-27T08:10:42;13.70;95.30
18712;DHT22;9485;49.386;8.674;2022-09-27T08:16:06;13.80;95.30
18712;DHT22;9485;49.386;8.674;2022-09-27T08:21:47;13.80;95.30
18712;DHT22;9485;49.386;8.674;2022-09-27T08:27:16;13.90;95.50
18712;DHT22;9485;49.386;8.674;2022-09-27T08:33:01;14.00;95.70
18712;DHT22;9485;49.386;8.674;2022-09-27T08:38:22;14.20;95.70
18712;DHT22;9485;49.386;8.674;2022-09-27T08:43:51;14.30;95.60
18712;DHT22;9485;49.386;8.674;2022-09-27T08:49:27;14.50;95.30
18712;DHT22;9485;49.386;8.674;2022-09-27T08:54:55;14.50;95.10
18712;DHT22;9485;49.386;8.674;2022-09-27T09:00:19;14.70;95.00
18712;DHT22;9485;49.386;8.674;2022-09-27T09:05:42;14.70;94.40
18712;DHT22;9485;49.386;8.674;2022-09-27T09:11:11;14.80;94.20
18712;DHT22;9485;49.386;8.674;2022-09-27T09:17:03;14.70;93.60
18712;DHT22;9485;49.386;8.674;2022-09-27T09:23:07;14.70;93.70
18712;DHT22;9485;49.386;8.674;2022-09-27T09:28:53;14.70;93.60
18712;DHT22;9485;49.386;8.674;2022-09-27T09:34:28;14.80;93.80
18712;DHT22;9485;49.386;8.674;2022-09-27T09:39:56;14.90;93.90
18712;DHT22;9485;49.386;8.674;2022-09-27T09:45:25;15.00;93.70
18712;DHT22;9485;49.386;8.674;2022-09-27T09:50:52;15.20;93.40
18712;DHT22;9485;49.386;8.674;2022-09-27T09:56:21;15.20;93.00
18712;DHT22;9485;49.386;8.674;2022-09-27T10:01:46;15.30;93.00
18712;DHT22;9485;49.386;8.674;2022-09-27T10:07:09;15.30;93.00
18712;DHT22;9485;49.386;8.674;2022-09-27T10:12:30;15.30;93.00
18712;DHT22;9485;49.386;8.674;2022-09-27T10:17:55;15.40;93.00
18712;DHT22;9485;49.386;8.674;2022-09-27T10:23:22;15.40;92.70
18712;DHT22;9485;49.386;8.674;2022-09-27T10:29:16;15.40;92.70
18712;DHT22;9485;49.386;8.674;2022-09-27T10:34:42;15.30;92.60
18712;DHT22;9485;49.386;8.674;2022-09-27T10:40:23;15.40;92.40
18712;DHT22;9485;49.386;8.674;2022-09-27T10:45:59;15.40;92.00
18712;DHT22;9485;49.386;8.674;2022-09-27T10:51:30;15.30;91.70
18712;DHT22;9485;49.386;8.674;2022-09-27T10:56:59;15.30;92.00
18712;DHT22;9485;49.386;8.674;2022-09-27T11:02:26;15.30;91.70
18712;DHT22;9485;49.386;8.674;2022-09-27T11:07:58;15.10;92.00
18712;DHT22;9485;49.386;8.674;2022-09-27T11:13:56;15.10;92.30
18712;DHT22;9485;49.386;8.674;2022-09-27T11:19:40;15.10;92.20
18712;DHT22;9485;49.386;8.674;2022-09-27T11:25:19;15.20;92.20
18712;DHT22;9485;49.386;8.674;2022-09-27T11:30:59;15.50;92.70
18712;DHT22;9485;49.386;8.674;2022-09-27T11:36:47;15.60;92.50
18712;DHT22;9485;49.386;8.674;2022-09-27T11:42:43;15.80;92.50
18712;DHT22;9485;49.386;8.674;2022-09-27T11:48:30;15.80;91.40
18712;DHT22;9485;49.386;8.674;2022-09-27T11:54:23;15.80;91.80
18712;DHT22;9485;49.386;8.674;2022-09-27T12:06:06;16.10;92.10
18712;DHT22;9485;49.386;8.674;2022-09-27T12:11:37;16.30;92.70
18712;DHT22;9485;49.386;8.674;2022-09-27T12:17:06;16.50;92.30
18712;DHT22;9485;49.386;8.674;2022-09-27T12:22:39;16.60;92.80
18712;DHT22;9485;49.386;8.674;2022-09-27T12:28:11;17.10;93.70
18712;DHT22;9485;49.386;8.674;2022-09-27T12:33:44;17.90;93.40
18712;DHT22;9485;49.386;8.674;2022-09-27T12:39:17;18.20;92.00
18712;DHT22;9485;49.386;8.674;2022-09-27T12:44:47;18.30;90.80
18712;DHT22;9485;49.386;8.674;2022-09-27T12:50:16;18.20;90.70
18712;DHT22;9485;49.386;8.674;2022-09-27T12:55:58;18.10;89.80
18712;DHT22;9485;49.386;8.674;2022-09-27T13:01:48;17.90;87.50
18712;DHT22;9485;49.386;8.674;2022-09-27T13:07:34;17.60;88.30
18712;DHT22;9485;49.386;8.674;2022-09-27T13:13:11;17.30;88.50
18712;DHT22;9485;49.386;8.674;2022-09-27T13:18:54;17.00;89.40
18712;DHT22;9485;49.386;8.674;2022-09-27T13:24:40;16.80;88.30
18712;DHT22;9485;49.386;8.674;2022-09-27T13:30:46;16.60;89.60
18712;DHT22;9485;49.386;8.674;2022-09-27T13:36:28;16.50;90.00
18712;DHT22;9485;49.386;8.674;2022-09-27T13:42:08;16.50;90.30
18712;DHT22;9485;49.386;8.674;2022-09-27T13:47:43;16.50;90.70
18712;DHT22;9485;49.386;8.674;2022-09-27T13:53:24;16.70;90.70
18712;DHT22;9485;49.386;8.674;2022-09-27T13:58:51;16.90;90.50
18712;DHT22;9485;49.386;8.674;2022-09-27T14:04:48;16.90;90.30
18712;DHT22;9485;49.386;8.674;2022-09-27T14:10:19;17.00;89.80
18712;DHT22;9485;49.386;8.674;2022-09-27T14:15:43;17.10;89.60
18712;DHT22;9485;49.386;8.674;2022-09-27T14:21:18;17.10;89.70
18712;DHT22;9485;49.386;8.674;2022-09-27T14:27:11;17.30;87.90
18712;DHT22;9485;49.386;8.674;2022-09-27T14:32:45;17.40;88.60
18712;DHT22;9485;49.386;8.674;2022-09-27T14:38:15;17.60;88.80
18712;DHT22;9485;49.386;8.674;2022-09-27T14:43:42;17.70;90.00
18712;DHT22;9485;49.386;8.674;2022-09-27T14:49:11;17.90;88.20
18712;DHT22;9485;49.386;8.674;2022-09-27T14:54:39;17.80;86.30
18712;DHT22;9485;49.386;8.674;2022-09-27T15:00:14;17.70;86.60
18712;DHT22;9485;49.386;8.674;2022-09-27T15:05:40;17.60;85.30
18712;DHT22;9485;49.386;8.674;2022-09-27T15:11:04;17.40;86.10
18712;DHT22;9485;49.386;8.674;2022-09-27T15:16:30;17.20;86.10
18712;DHT22;9485;49.386;8.674;2022-09-27T15:21:52;17.10;87.00
18712;DHT22;9485;49.386;8.674;2022-09-27T15:27:15;16.90;87.00
18712;DHT22;9485;49.386;8.674;2022-09-27T15:32:47;16.90;86.80
18712;DHT22;9485;49.386;8.674;2022-09-27T15:38:23;16.70;85.90
18712;DHT22;9485;49.386;8.674;2022-09-27T15:43:49;16.60;85.30
18712;DHT22;9485;49.386;8.674;2022-09-27T15:49:28;16.50;86.40
18712;DHT22;9485;49.386;8.674;2022-09-27T15:54:49;16.40;85.00
18712;DHT22;9485;49.386;8.674;2022-09-27T16:00:14;16.20;87.00
18712;DHT22;9485;49.386;8.674;2022-09-27T16:05:36;16.10;86.90
18712;DHT22;9485;49.386;8.674;2022-09-27T16:10:58;15.90;87.40
18712;DHT22;9485;49.386;8.674;2022-09-27T16:16:22;15.80;87.90
18712;DHT22;9485;49.386;8.674;2022-09-27T16:21:43;15.80;88.10
18712;DHT22;9485;49.386;8.674;2022-09-27T16:27:06;15.70;88.60
18712;DHT22;9485;49.386;8.674;2022-09-27T16:32:28;15.70;88.80
18712;DHT22;9485;49.386;8.674;2022-09-27T16:37:49;15.70;88.60
18712;DHT22;9485;49.386;8.674;2022-09-27T16:43:10;15.60;88.70
18712;DHT22;9485;49.386;8.674;2022-09-27T16:48:33;15.60;88.90
18712;DHT22;9485;49.386;8.674;2022-09-27T16:53:54;15.50;87.10
18712;DHT22;9485;49.386;8.674;2022-09-27T16:59:17;15.50;88.30
18712;DHT22;9485;49.386;8.674;2022-09-27T17:04:40;15.30;88.30
18712;DHT22;9485;49.386;8.674;2022-09-27T17:10:01;15.20;88.70
18712;DHT22;9485;49.386;8.674;2022-09-27T17:15:22;15.10;88.40
18712;DHT22;9485;49.386;8.674;2022-09-27T17:20:44;15.00;88.20
18712;DHT22;9485;49.386;8.674;2022-09-27T17:26:07;14.90;88.10
18712;DHT22;9485;49.386;8.674;2022-09-27T17:31:33;14.80;88.20
18712;DHT22;9485;49.386;8.674;2022-09-27T17:36:57;14.80;88.90
18712;DHT22;9485;49.386;8.674;2022-09-27T17:42:19;14.60;89.00
18712;DHT22;9485;49.386;8.674;2022-09-27T17:47:41;14.70;89.20
18712;DHT22;9485;49.386;8.674;2022-09-27T17:53:22;14.60;89.30
18712;DHT22;9485;49.386;8.674;2022-09-27T17:58:46;14.60;89.20
18712;DHT22;9485;49.386;8.674;2022-09-27T18:04:09;14.60;89.60
18712;DHT22;9485;49.386;8.674;2022-09-27T18:09:33;14.60;90.00
18712;DHT22;9485;49.386;8.674;2022-09-27T18:14:55;14.60;89.60
18712;DHT22;9485;49.386;8.674;2022-09-27T18:20:16;14.50;89.70
18712;DHT22;9485;49.386;8.674;2022-09-27T18:25:41;14.40;89.60
18712;DHT22;9485;49.386;8.674;2022-09-27T18:31:04;14.40;89.20
18712;DHT22;9485;49.386;8.674;2022-09-27T18:36:27;14.30;89.70
18712;DHT22;9485;49.386;8.674;2022-09-27T18:41:51;14.30;90.00
18712;DHT22;9485;49.386;8.674;2022-09-27T18:47:13;14.20;89.80
18712;DHT22;9485;49.386;8.674;2022-09-27T18:52:33;14.10;90.00
18712;DHT22;9485;49.386;8.674;2022-09-27T18:57:55;14.00;90.00
18712;DHT22;9485;49.386;8.674;2022-09-27T19:03:16;13.90;90.00
18712;DHT22;9485;49.386;8.674;2022-09-27T19:08:37;13.80;90.30
18712;DHT22;9485;49.386;8.674;2022-09-27T19:13:59;13.80;90.30
18712;DHT22;9485;49.386;8.674;2022-09-27T19:19:21;13.80;90.40
18712;DHT22;9485;49.386;8.674;2022-09-27T19:24:42;13.70;90.50
18712;DHT22;9485;49.386;8.674;2022-09-27T19:30:05;13.70;90.70
18712;DHT22;9485;49.386;8.674;2022-09-27T19:35:26;13.70;90.60
18712;DHT22;9485;49.386;8.674;2022-09-27T19:40:52;13.70;90.60
18712;DHT22;9485;49.386;8.674;2022-09-27T19:46:15;13.70;90.40
18712;DHT22;9485;49.386;8.674;2022-09-27T19:51:36;13.60;90.60
18712;DHT22;9485;49.386;8.674;2022-09-27T19:56:58;13.60;90.60
18712;DHT22;9485;49.386;8.674;2022-09-27T20:02:20;13.60;90.60
18712;DHT22;9485;49.386;8.674;2022-09-27T20:07:42;13.50;90.70
18712;DHT22;9485;49.386;8.674;2022-09-27T20:13:04;13.50;90.90
18712;DHT22;9485;49.386;8.674;2022-09-27T20:18:26;13.60;91.10
18712;DHT22;9485;49.386;8.674;2022-09-27T20:23:47;13.60;90.90
18712;DHT22;9485;49.386;8.674;2022-09-27T20:29:09;13.60;91.00
18712;DHT22;9485;49.386;8.674;2022-09-27T20:34:31;13.60;91.10
18712;DHT22;9485;49.386;8.674;2022-09-27T20:39:52;13.60;91.10
18712;DHT22;9485;49.386;8.674;2022-09-27T20:45:14;13.60;91.20
18712;DHT22;9485;49.386;8.674;2022-09-27T20:50:36;13.60;91.20
18712;DHT22;9485;49.386;8.674;2022-09-27T20:55:58;13.60;91.10
18712;DHT22;9485;49.386;8.674;2022-09-27T21:01:22;13.60;91.00
18712;DHT22;9485;49.386;8.674;2022-09-27T21:06:45;13.60;91.00
18712;DHT22;9485;49.386;8.674;2022-09-27T21:12:06;13.50;91.10
18712;DHT22;9485;49.386;8.674;2022-09-27T21:17:26;13.50;91.20
18712;DHT22;9485;49.386;8.674;2022-09-27T21:22:49;13.50;91.20
18712;DHT22;9485;49.386;8.674;2022-09-27T21:28:09;13.50;91.10
18712;DHT22;9485;49.386;8.674;2022-09-27T21:33:30;13.40;91.30
18712;DHT22;9485;49.386;8.674;2022-09-27T21:38:52;13.40;91.50
18712;DHT22;9485;49.386;8.674;2022-09-27T21:44:13;13.30;91.40
18712;DHT22;9485;49.386;8.674;2022-09-27T21:49:33;13.20;91.50
18712;DHT22;9485;49.386;8.674;2022-09-27T21:54:56;13.10;91.70
18712;DHT22;9485;49.386;8.674;2022-09-27T22:00:17;13.10;91.90
18712;DHT22;9485;49.386;8.674;2022-09-27T22:05:42;13.00;92.00
18712;DHT22;9485;49.386;8.674;2022-09-27T22:11:05;12.90;92.00
18712;DHT22;9485;49.386;8.674;2022-09-27T22:16:29;12.80;92.10
18712;DHT22;9485;49.386;8.674;2022-09-27T22:21:49;12.80;92.20
18712;DHT22;9485;49.386;8.674;2022-09-27T22:27:11;12.70;92.30
18712;DHT22;9485;49.386;8.674;2022-09-27T22:32:32;12.70;92.40
18712;DHT22;9485;49.386;8.674;2022-09-27T22:37:55;12.60;92.50
18712;DHT22;9485;49.386;8.674;2022-09-27T22:43:17;12.60;93.00
18712;DHT22;9485;49.386;8.674;2022-09-27T22:48:39;12.60;93.20
18712;DHT22;9485;49.386;8.674;2022-09-27T22:54:00;12.60;93.10
18712;DHT22;9485;49.386;8.674;2022-09-27T22:59:22;12.60;93.10
18712;DHT22;9485;49.386;8.674;2022-09-27T23:04:44;12.70;93.30
18712;DHT22;9485;49.386;8.674;2022-09-27T23:10:07;12.70;93.30
18712;DHT22;9485;49.386;8.674;2022-09-27T23:15:30;12.70;93.40
18712;DHT22;9485;49.386;8.674;2022-09-27T23:20:51;12.80;93.40
18712;DHT22;9485;49.386;8.674;2022-09-27T23:26:13;12.80;93.50
18712;DHT22;9485;49.386;8.674;2022-09-27T23:31:37;12.80;93.50
18712;DHT22;9485;49.386;8.674;2022-09-27T23:36:58;12.80;93.60
18712;DHT22;9485;49.386;8.674;2022-09-27T23:42:18;12.80;93.50
18712;DHT22;9485;49.386;8.674;2022-09-27T23:47:40;12.80;93.60
18712;DHT22;9485;49.386;8.674;2022-09-27T23:53:01;12.90;93.60
18712;DHT22;9485;49.386;8.674;2022-09-27T23:58:21;12.90;93.70
